Time;durP1;ratioP1;P1;durP2;ratioP2;P2;SDS_P1;SDS_P2;PMS_P1;PMS_P2;Temp;Humidity;BMP_temperature;BMP_pressure;BME280_temperature;BME280_humidity;BME280_pressure;Samples;Min_cycle;Max_cycle;Signal;HPM_P1;HPM_P2
2021/09/19 00:00:57;;;;;;;3.33;1.37;;;16.40;75.60;;;;;;5052551;28;20454;-43
2021/09/19 00:03:24;;;;;;;1.80;1.70;;;16.40;75.70;;;;;;5049464;28;20467;-43
2021/09/19 00:05:51;;;;;;;1.33;1.23;;;16.40;75.60;;;;;;5027628;28;20485;-43
2021/09/19 00:08:18;;;;;;;1.50;1.40;;;16.40;75.70;;;;;;5052425;28;20462;-43
2021/09/19 00:10:45;;;;;;;1.70;1.60;;;16.40;75.90;;;;;;5032615;28;20451;-43
2021/09/19 00:13:12;;;;;;;1.53;1.43;;;16.40;75.80;;;;;;5053442;28;20853;-44
2021/09/19 00:15:38;;;;;;;1.10;1.10;;;16.40;76.10;;;;;;5048987;28;20486;-43
2021/09/19 00:18:05;;;;;;;1.80;1.43;;;16.30;76.10;;;;;;5049758;28;20533;-43
2021/09/19 00:20:32;;;;;;;3.17;1.70;;;16.30;76.30;;;;;;5051247;28;20451;-43
2021/09/19 00:22:59;;;;;;;2.83;1.50;;;16.40;76.30;;;;;;5049409;28;20455;-43
2021/09/19 00:25:25;;;;;;;1.40;1.17;;;16.30;76.10;;;;;;5049508;28;20462;-43
2021/09/19 00:27:52;;;;;;;2.47;1.50;;;16.30;76.20;;;;;;5051147;28;21720;-43
2021/09/19 00:30:19;;;;;;;4.33;1.63;;;16.30;76.30;;;;;;5034517;28;20464;-43
2021/09/19 00:32:45;;;;;;;1.03;1.00;;;16.30;76.30;;;;;;5031400;28;21029;-43
2021/09/19 00:35:15;;;;;;;2.30;1.27;;;16.30;76.40;;;;;;5053356;28;20478;-43
2021/09/19 00:37:42;;;;;;;1.33;1.23;;;16.30;76.40;;;;;;5039606;28;20454;-43
2021/09/19 00:40:10;;;;;;;2.10;1.30;;;16.30;76.30;;;;;;5034730;28;20873;-43
2021/09/19 00:42:37;;;;;;;1.50;1.40;;;16.30;76.30;;;;;;5025950;28;20458;-43
2021/09/19 00:45:08;;;;;;;1.30;1.20;;;16.30;76.20;;;;;;5047251;28;20557;-43
2021/09/19 00:47:36;;;;;;;2.50;1.20;;;16.20;76.40;;;;;;5050755;28;20469;-43
2021/09/19 00:50:05;;;;;;;1.70;1.50;;;16.20;76.40;;;;;;5054072;28;20454;-43
2021/09/19 00:52:32;;;;;;;1.93;1.20;;;16.20;76.50;;;;;;5029591;28;20541;-43
2021/09/19 00:55:00;;;;;;;1.70;1.60;;;16.20;76.50;;;;;;5048410;28;20501;-43
2021/09/19 00:57:28;;;;;;;1.40;1.30;;;16.20;76.70;;;;;;5031591;28;20991;-43
2021/09/19 00:59:55;;;;;;;1.43;1.33;;;16.20;76.70;;;;;;5053113;28;20454;-43
2021/09/19 01:02:22;;;;;;;2.03;1.30;;;16.20;76.70;;;;;;5046854;28;20568;-43
2021/09/19 01:04:49;;;;;;;1.73;1.30;;;16.10;76.90;;;;;;5049552;28;20512;-43
2021/09/19 01:07:17;;;;;;;1.40;1.30;;;16.20;76.90;;;;;;5048884;28;20460;-43
2021/09/19 01:09:43;;;;;;;1.57;1.47;;;16.20;76.90;;;;;;5051942;28;20994;-43
2021/09/19 01:12:11;;;;;;;1.40;1.20;;;16.10;76.90;;;;;;5029547;28;20454;-43
2021/09/19 01:14:41;;;;;;;1.40;1.30;;;16.10;76.90;;;;;;5044605;28;20516;-43
2021/09/19 01:17:09;;;;;;;2.67;1.57;;;16.20;76.90;;;;;;5051712;28;20454;-43
2021/09/19 01:19:36;;;;;;;2.00;1.73;;;16.20;76.90;;;;;;5048483;28;20468;-43
2021/09/19 01:22:04;;;;;;;1.10;1.00;;;16.10;76.90;;;;;;5050968;28;21035;-43
2021/09/19 01:24:32;;;;;;;1.37;1.27;;;16.20;77.10;;;;;;5047926;28;21018;-43
2021/09/19 01:26:59;;;;;;;1.57;1.30;;;16.20;77.20;;;;;;5048967;28;20925;-43
2021/09/19 01:29:26;;;;;;;1.70;1.50;;;16.20;77.00;;;;;;5047074;28;20467;-43
2021/09/19 01:31:53;;;;;;;2.10;1.40;;;16.10;77.00;;;;;;5032877;28;20462;-43
2021/09/19 01:34:20;;;;;;;2.13;1.93;;;16.10;77.00;;;;;;5050032;28;20467;-43
2021/09/19 01:36:46;;;;;;;2.53;1.40;;;16.10;77.00;;;;;;5045984;28;20859;-43
2021/09/19 01:39:13;;;;;;;2.80;1.70;;;16.10;77.00;;;;;;5027392;28;20546;-43
2021/09/19 01:41:40;;;;;;;1.40;1.27;;;16.10;77.00;;;;;;5030314;28;20466;-43
2021/09/19 01:44:07;;;;;;;1.60;1.50;;;16.00;77.20;;;;;;5027641;28;20463;-43
2021/09/19 01:46:36;;;;;;;1.60;1.50;;;16.00;77.40;;;;;;5057244;28;20461;-43
2021/09/19 01:49:07;;;;;;;1.63;1.33;;;16.00;77.40;;;;;;5046820;28;20450;-43
2021/09/19 01:51:35;;;;;;;2.57;1.37;;;16.00;77.60;;;;;;5046523;28;20466;-43
2021/09/19 01:54:02;;;;;;;2.13;1.43;;;16.00;77.60;;;;;;5031173;28;21038;-43
2021/09/19 01:56:29;;;;;;;1.80;1.70;;;16.00;77.60;;;;;;5027880;28;20491;-43
2021/09/19 01:58:56;;;;;;;1.20;1.10;;;16.00;77.50;;;;;;5049737;28;20826;-43
2021/09/19 02:01:23;;;;;;;1.43;1.33;;;16.00;77.50;;;;;;5047233;28;20459;-43
2021/09/19 02:03:52;;;;;;;1.73;1.63;;;15.90;77.70;;;;;;5050406;28;20455;-43
2021/09/19 02:06:20;;;;;;;2.00;1.53;;;15.90;77.60;;;;;;5037236;28;20890;-43
2021/09/19 02:08:47;;;;;;;1.53;1.43;;;15.90;77.90;;;;;;5035304;28;20869;-43
2021/09/19 02:11:15;;;;;;;4.20;1.80;;;15.90;78.00;;;;;;5049180;28;20524;-43
2021/09/19 02:13:43;;;;;;;1.90;1.37;;;15.90;77.90;;;;;;5051930;28;20461;-43
2021/09/19 02:16:10;;;;;;;1.73;1.63;;;15.80;78.00;;;;;;5030093;28;20479;-44
2021/09/19 02:18:37;;;;;;;2.13;1.57;;;15.80;78.20;;;;;;5047869;28;20464;-43
2021/09/19 02:21:06;;;;;;;1.57;1.47;;;15.80;78.20;;;;;;5046868;28;20460;-43
2021/09/19 02:23:33;;;;;;;1.43;1.33;;;15.80;78.30;;;;;;5050397;28;20951;-43
2021/09/19 02:26:00;;;;;;;1.77;1.60;;;15.80;78.30;;;;;;5071240;28;20457;-43
2021/09/19 02:28:27;;;;;;;1.67;1.57;;;15.80;78.40;;;;;;5071186;28;20473;-43
2021/09/19 02:30:53;;;;;;;2.63;1.43;;;15.70;78.40;;;;;;5053264;28;20461;-43
2021/09/19 02:33:20;;;;;;;1.40;1.30;;;15.70;78.60;;;;;;5050140;28;20473;-43
2021/09/19 02:35:47;;;;;;;1.53;1.43;;;15.70;78.70;;;;;;5073955;28;20802;-43
2021/09/19 02:38:14;;;;;;;1.60;1.33;;;15.70;78.70;;;;;;5051803;28;20457;-43
2021/09/19 02:40:41;;;;;;;2.00;1.90;;;15.70;78.60;;;;;;5054475;28;21053;-43
2021/09/19 02:43:08;;;;;;;1.30;1.20;;;15.70;78.60;;;;;;5070291;28;20461;-43
2021/09/19 02:45:35;;;;;;;1.67;1.57;;;15.70;78.70;;;;;;5048668;28;20452;-42
2021/09/19 02:48:02;;;;;;;2.23;1.43;;;15.70;78.60;;;;;;5063786;28;20518;-42
2021/09/19 02:50:29;;;;;;;1.70;1.60;;;15.70;78.70;;;;;;5068926;28;20465;-42
2021/09/19 02:52:56;;;;;;;1.93;1.70;;;15.70;78.80;;;;;;5035787;28;20984;-42
2021/09/19 02:55:23;;;;;;;3.20;1.80;;;15.70;78.90;;;;;;5071483;28;20488;-42
2021/09/19 02:57:50;;;;;;;3.10;1.70;;;15.70;78.90;;;;;;5070376;28;20449;-42
2021/09/19 03:00:19;;;;;;;1.93;1.53;;;15.70;78.90;;;;;;5053809;28;20515;-45
2021/09/19 03:02:47;;;;;;;1.60;1.37;;;15.70;78.90;;;;;;5066291;28;20447;-46
2021/09/19 03:05:15;;;;;;;1.77;1.37;;;15.60;78.90;;;;;;5070241;28;20545;-46
2021/09/19 03:07:42;;;;;;;2.17;1.80;;;15.60;79.20;;;;;;5071951;28;20557;-46
2021/09/19 03:10:11;;;;;;;1.60;1.27;;;15.60;79.00;;;;;;5071262;28;20445;-46
2021/09/19 03:12:39;;;;;;;1.77;1.67;;;15.70;78.90;;;;;;5071456;28;20458;-46
2021/09/19 03:15:07;;;;;;;2.27;1.57;;;15.60;79.00;;;;;;5069605;28;20721;-46
2021/09/19 03:17:34;;;;;;;1.67;1.57;;;15.60;79.10;;;;;;5069055;28;20486;-46
2021/09/19 03:20:01;;;;;;;2.53;1.80;;;15.70;79.00;;;;;;5069424;28;20458;-46
2021/09/19 03:22:28;;;;;;;1.73;1.63;;;15.60;79.10;;;;;;5069054;28;20468;-45
2021/09/19 03:24:55;;;;;;;1.83;1.73;;;15.60;79.20;;;;;;5067072;28;20457;-46
2021/09/19 03:27:22;;;;;;;1.90;1.70;;;15.60;79.20;;;;;;5071737;28;20467;-46
2021/09/19 03:29:48;;;;;;;1.60;1.50;;;15.50;79.20;;;;;;5069584;28;20547;-46
2021/09/19 03:32:15;;;;;;;3.40;1.97;;;15.50;79.20;;;;;;5051585;28;20472;-46
2021/09/19 03:34:42;;;;;;;2.20;1.70;;;15.50;79.30;;;;;;5069399;28;20462;-46
2021/09/19 03:37:09;;;;;;;2.40;1.70;;;15.50;79.30;;;;;;5054344;28;20950;-46
2021/09/19 03:39:36;;;;;;;1.57;1.47;;;15.50;79.30;;;;;;5071917;28;20458;-46
2021/09/19 03:42:03;;;;;;;1.87;1.73;;;15.50;79.20;;;;;;5075729;28;20955;-46
2021/09/19 03:44:29;;;;;;;2.70;2.20;;;15.50;79.30;;;;;;5071097;28;20450;-46
2021/09/19 03:46:56;;;;;;;2.60;1.73;;;15.50;79.30;;;;;;5073214;28;20469;-46
2021/09/19 03:49:24;;;;;;;1.80;1.70;;;15.50;79.40;;;;;;5054936;28;20469;-46
2021/09/19 03:51:51;;;;;;;1.93;1.80;;;15.50;79.50;;;;;;5073363;28;20457;-46
2021/09/19 03:54:18;;;;;;;6.70;1.93;;;15.50;79.30;;;;;;5070868;28;20446;-46
2021/09/19 03:56:45;;;;;;;1.43;1.33;;;15.40;79.50;;;;;;5069072;28;20481;-46
2021/09/19 03:59:11;;;;;;;1.83;1.73;;;15.40;79.70;;;;;;5056036;28;20460;-46
2021/09/19 04:01:38;;;;;;;2.13;1.93;;;15.40;79.70;;;;;;5050789;28;20454;-46
2021/09/19 04:04:05;;;;;;;2.47;1.90;;;15.40;79.80;;;;;;5069110;28;20459;-46
2021/09/19 04:06:32;;;;;;;2.10;2.00;;;15.40;79.60;;;;;;5075745;28;20475;-46
2021/09/19 04:08:59;;;;;;;2.40;2.13;;;15.40;79.70;;;;;;5068504;28;20927;-46
2021/09/19 04:11:25;;;;;;;1.93;1.83;;;15.40;79.80;;;;;;5070125;28;20465;-46
2021/09/19 04:13:52;;;;;;;2.30;2.13;;;15.30;79.90;;;;;;5048858;28;20473;-46
2021/09/19 04:16:19;;;;;;;2.03;1.83;;;15.30;79.90;;;;;;5066299;28;20496;-46
2021/09/19 04:18:45;;;;;;;3.33;2.00;;;15.30;80.00;;;;;;5069790;28;21108;-45
2021/09/19 04:21:12;;;;;;;2.33;2.00;;;15.30;80.00;;;;;;5051804;28;20458;-46
2021/09/19 04:23:39;;;;;;;2.17;1.97;;;15.40;79.90;;;;;;5056746;28;20989;-46
2021/09/19 04:26:05;;;;;;;2.63;2.43;;;15.30;79.90;;;;;;5051226;28;20459;-46
2021/09/19 04:28:32;;;;;;;4.07;2.47;;;15.30;80.00;;;;;;5071070;28;20469;-46
2021/09/19 04:30:59;;;;;;;2.40;2.20;;;15.30;80.00;;;;;;5076600;28;20527;-46
2021/09/19 04:33:26;;;;;;;3.60;2.23;;;15.30;80.10;;;;;;5072687;28;20476;-46
2021/09/19 04:35:53;;;;;;;3.20;1.97;;;15.30;80.10;;;;;;5075526;28;20481;-46
2021/09/19 04:38:20;;;;;;;2.43;2.23;;;15.30;80.20;;;;;;5069255;28;20532;-46
2021/09/19 04:40:47;;;;;;;2.00;1.90;;;15.20;80.20;;;;;;5073014;28;21018;-46
2021/09/19 04:43:13;;;;;;;2.60;1.90;;;15.20;80.30;;;;;;5072901;28;20468;-46
2021/09/19 04:45:41;;;;;;;3.40;2.37;;;15.20;80.20;;;;;;5057093;28;20988;-46
2021/09/19 04:48:08;;;;;;;2.67;2.47;;;15.20;80.30;;;;;;5073867;28;20461;-46
2021/09/19 04:50:35;;;;;;;2.20;2.00;;;15.20;80.30;;;;;;5057381;28;20898;-46
2021/09/19 04:53:01;;;;;;;2.87;2.60;;;15.20;80.40;;;;;;5072562;28;20461;-46
2021/09/19 04:55:28;;;;;;;2.40;2.20;;;15.10;80.40;;;;;;5054687;28;20481;-46
2021/09/19 04:57:55;;;;;;;2.17;2.03;;;15.10;80.50;;;;;;5054962;28;20966;-46
2021/09/19 05:00:22;;;;;;;5.23;2.77;;;15.10;80.50;;;;;;5073383;28;20541;-46
2021/09/19 05:02:51;;;;;;;2.83;1.90;;;15.10;80.50;;;;;;5058318;28;20939;-46
2021/09/19 05:05:18;;;;;;;3.73;2.43;;;15.10;80.60;;;;;;5073032;28;20954;-46
2021/09/19 05:07:45;;;;;;;2.57;2.37;;;15.10;80.60;;;;;;5067652;28;20486;-46
2021/09/19 05:10:12;;;;;;;2.60;2.40;;;15.10;80.60;;;;;;5070834;28;20461;-46
2021/09/19 05:12:39;;;;;;;2.07;1.87;;;15.10;80.60;;;;;;5069733;28;20544;-45
2021/09/19 05:15:06;;;;;;;2.63;2.43;;;15.10;80.60;;;;;;5068616;28;20870;-46
2021/09/19 05:17:33;;;;;;;3.47;2.60;;;15.10;80.70;;;;;;5068440;28;20454;-46
2021/09/19 05:20:01;;;;;;;3.97;2.40;;;15.10;80.60;;;;;;5069348;28;20473;-46
2021/09/19 05:22:28;;;;;;;3.30;2.40;;;15.10;80.60;;;;;;5052698;28;20548;-46
2021/09/19 05:24:55;;;;;;;3.37;2.43;;;15.10;80.60;;;;;;5051557;28;20457;-45
2021/09/19 05:27:21;;;;;;;2.70;2.27;;;15.10;80.60;;;;;;5052391;28;20469;-46
2021/09/19 05:29:48;;;;;;;2.13;1.93;;;15.10;80.60;;;;;;5072894;28;20468;-46
2021/09/19 05:32:15;;;;;;;2.43;2.20;;;15.10;80.60;;;;;;5071620;28;20469;-46
2021/09/19 05:34:42;;;;;;;3.07;2.30;;;15.00;80.80;;;;;;5052774;28;20492;-46
2021/09/19 05:37:09;;;;;;;2.80;2.50;;;15.00;80.90;;;;;;5069064;28;20582;-46
2021/09/19 05:39:36;;;;;;;3.87;2.80;;;15.00;81.00;;;;;;5071021;28;20459;-46
2021/09/19 05:42:02;;;;;;;2.90;2.70;;;15.00;81.00;;;;;;5073028;28;20464;-46
2021/09/19 05:44:29;;;;;;;3.70;2.30;;;15.10;80.90;;;;;;5068584;28;20464;-46
2021/09/19 05:46:56;;;;;;;3.10;2.80;;;15.10;80.70;;;;;;5074431;28;20472;-46
2021/09/19 05:49:22;;;;;;;2.93;2.73;;;15.10;80.80;;;;;;5073112;28;20752;-46
2021/09/19 05:51:49;;;;;;;2.57;2.37;;;15.10;80.80;;;;;;5053786;28;20473;-46
2021/09/19 05:54:16;;;;;;;3.40;3.07;;;15.10;80.80;;;;;;5067873;28;20459;-46
2021/09/19 05:56:43;;;;;;;3.30;3.00;;;15.10;80.90;;;;;;5053046;28;20648;-46
2021/09/19 05:59:09;;;;;;;3.93;3.60;;;15.10;81.00;;;;;;5069591;28;20447;-46
2021/09/19 06:01:36;;;;;;;5.00;3.27;;;15.00;80.90;;;;;;5053301;28;20453;-46
2021/09/19 06:04:03;;;;;;;4.77;2.87;;;15.00;81.10;;;;;;5069012;28;20838;-46
2021/09/19 06:06:30;;;;;;;9.70;3.17;;;15.10;80.90;;;;;;5051098;28;20461;-46
2021/09/19 06:08:57;;;;;;;3.00;2.70;;;15.10;80.80;;;;;;5042215;28;20972;-46
2021/09/19 06:11:24;;;;;;;3.13;2.80;;;15.10;81.00;;;;;;5069611;28;20471;-46
2021/09/19 06:13:50;;;;;;;6.33;3.60;;;15.10;81.20;;;;;;5054280;28;20993;-46
2021/09/19 06:16:17;;;;;;;4.83;3.73;;;15.10;81.30;;;;;;5068865;28;20935;-46
2021/09/19 06:18:44;;;;;;;3.23;2.90;;;15.20;81.20;;;;;;5047848;28;20501;-46
2021/09/19 06:21:11;;;;;;;5.93;3.00;;;15.20;81.20;;;;;;5070752;28;20525;-46
2021/09/19 06:23:37;;;;;;;4.10;3.43;;;15.20;81.30;;;;;;5051392;28;20454;-46
2021/09/19 06:26:04;;;;;;;4.63;3.87;;;15.30;81.20;;;;;;5049631;28;20492;-46
2021/09/19 06:28:31;;;;;;;4.00;3.60;;;15.30;81.20;;;;;;5050450;28;20458;-46
2021/09/19 06:30:59;;;;;;;4.13;3.73;;;15.30;81.20;;;;;;5064495;28;21041;-45
2021/09/19 06:33:27;;;;;;;3.43;3.13;;;15.20;81.10;;;;;;5074029;28;20556;-46
2021/09/19 06:35:54;;;;;;;5.03;3.20;;;15.20;81.10;;;;;;5071481;28;20488;-46
2021/09/19 06:38:21;;;;;;;5.13;4.00;;;15.20;81.30;;;;;;5050465;28;20465;-46
2021/09/19 06:40:47;;;;;;;5.87;3.30;;;15.20;81.10;;;;;;5070626;28;20450;-46
2021/09/19 06:43:14;;;;;;;4.93;4.33;;;15.30;80.90;;;;;;5072621;28;20653;-46
2021/09/19 06:45:41;;;;;;;3.73;3.40;;;15.40;80.30;;;;;;5065325;28;20889;-46
2021/09/19 06:48:08;;;;;;;4.13;3.67;;;15.30;80.30;;;;;;5067830;28;20461;-45
2021/09/19 06:50:34;;;;;;;3.80;3.43;;;15.40;80.40;;;;;;5051490;28;20541;-46
2021/09/19 06:53:02;;;;;;;3.70;3.40;;;15.40;80.20;;;;;;5051462;28;20508;-46
2021/09/19 06:55:29;;;;;;;3.93;3.47;;;15.50;80.00;;;;;;5068621;28;20851;-46
2021/09/19 06:57:56;;;;;;;5.13;3.87;;;15.50;79.90;;;;;;5072348;28;20446;-46
2021/09/19 07:00:23;;;;;;;4.03;3.73;;;15.50;79.80;;;;;;5072248;28;20458;-46
2021/09/19 07:02:51;;;;;;;4.87;3.83;;;15.60;79.80;;;;;;5052633;28;20469;-46
2021/09/19 07:05:19;;;;;;;4.63;3.50;;;15.70;79.50;;;;;;5049004;28;20867;-46
2021/09/19 07:07:46;;;;;;;5.40;3.67;;;15.70;79.20;;;;;;5071844;28;20464;-46
2021/09/19 07:10:14;;;;;;;3.90;3.50;;;15.70;79.10;;;;;;5047722;28;20464;-46
2021/09/19 07:12:41;;;;;;;4.43;3.43;;;15.80;79.20;;;;;;5065966;28;20975;-46
2021/09/19 07:15:08;;;;;;;5.10;3.90;;;15.80;78.70;;;;;;5071125;28;20461;-46
2021/09/19 07:17:35;;;;;;;4.23;3.83;;;15.90;77.40;;;;;;5067944;28;20514;-46
2021/09/19 07:20:02;;;;;;;4.20;3.80;;;15.90;77.20;;;;;;5070560;28;20482;-46
2021/09/19 07:22:29;;;;;;;3.70;3.20;;;16.00;77.60;;;;;;5064332;28;20468;-47
2021/09/19 07:24:56;;;;;;;4.00;3.40;;;16.00;77.50;;;;;;5067738;28;20852;-46
2021/09/19 07:27:23;;;;;;;4.10;3.70;;;16.00;76.80;;;;;;5075707;28;20976;-46
2021/09/19 07:29:50;;;;;;;3.90;3.30;;;16.00;76.50;;;;;;5075765;28;20457;-47
2021/09/19 07:32:17;;;;;;;3.27;2.97;;;16.10;76.40;;;;;;5073183;28;21011;-46
2021/09/19 07:34:44;;;;;;;3.30;3.00;;;16.20;76.50;;;;;;5076744;28;20811;-46
2021/09/19 07:37:11;;;;;;;4.20;3.60;;;16.30;76.10;;;;;;5072360;28;20496;-46
2021/09/19 07:39:38;;;;;;;3.43;3.13;;;16.40;75.30;;;;;;5069575;28;20463;-46
2021/09/19 07:42:05;;;;;;;3.80;3.40;;;16.40;74.70;;;;;;5072254;28;20458;-46
2021/09/19 07:44:34;;;;;;;5.30;3.50;;;16.40;74.60;;;;;;5053828;28;20453;-47
2021/09/19 07:47:02;;;;;;;4.10;3.53;;;16.50;74.70;;;;;;5068844;28;20465;-47
2021/09/19 07:49:29;;;;;;;3.40;3.10;;;16.70;74.30;;;;;;5070579;28;20470;-47
2021/09/19 07:51:56;;;;;;;3.63;3.33;;;16.90;73.60;;;;;;5070911;28;21016;-47
2021/09/19 07:54:23;;;;;;;4.07;3.30;;;17.00;72.40;;;;;;5069885;28;20549;-47
2021/09/19 07:56:50;;;;;;;4.63;3.30;;;17.10;72.20;;;;;;5069590;28;20481;-47
2021/09/19 07:59:17;;;;;;;3.93;2.70;;;17.20;72.20;;;;;;5075710;28;20962;-47
2021/09/19 08:01:43;;;;;;;3.90;3.60;;;17.30;71.70;;;;;;5055355;28;20457;-47
2021/09/19 08:04:11;;;;;;;3.30;3.00;;;17.40;71.30;;;;;;5072510;28;20495;-48
2021/09/19 08:06:38;;;;;;;3.83;3.47;;;17.50;71.30;;;;;;5073540;28;20514;-47
2021/09/19 08:09:04;;;;;;;3.73;2.73;;;17.70;70.80;;;;;;5071920;28;20461;-47
2021/09/19 08:11:31;;;;;;;3.43;3.13;;;17.90;69.10;;;;;;5054921;28;20473;-47
2021/09/19 08:14:07;;;;;;;3.43;3.13;;;18.10;67.90;;;;;;5047075;28;20481;-47
2021/09/19 08:16:36;;;;;;;4.37;3.43;;;18.20;67.60;;;;;;5053881;28;20571;-47
2021/09/19 08:19:05;;;;;;;6.33;3.37;;;18.30;67.10;;;;;;5050630;28;20464;-47
2021/09/19 08:21:32;;;;;;;4.33;3.07;;;18.50;66.20;;;;;;5072586;28;21013;-48
2021/09/19 08:23:58;;;;;;;2.70;2.50;;;18.70;65.20;;;;;;5072474;28;20454;-47
2021/09/19 08:26:25;;;;;;;3.60;3.30;;;18.60;64.90;;;;;;5072891;28;20469;-47
2021/09/19 08:28:52;;;;;;;3.57;3.27;;;18.70;64.70;;;;;;5050861;28;20458;-47
2021/09/19 08:31:18;;;;;;;3.37;3.00;;;18.80;64.60;;;;;;5074985;28;20509;-47
2021/09/19 08:33:46;;;;;;;2.80;2.57;;;18.90;64.00;;;;;;5068420;28;20904;-47
2021/09/19 08:36:13;;;;;;;3.80;3.23;;;19.10;64.00;;;;;;5070460;28;20507;-47
2021/09/19 08:38:39;;;;;;;3.27;2.97;;;19.30;64.00;;;;;;5071351;28;20438;-47
2021/09/19 08:41:06;;;;;;;3.93;3.13;;;19.60;63.20;;;;;;5070779;28;20810;-47
2021/09/19 08:43:33;;;;;;;3.60;3.07;;;19.80;63.20;;;;;;5071097;28;20469;-48
2021/09/19 08:46:01;;;;;;;4.13;2.60;;;20.10;61.90;;;;;;5053725;28;20438;-47
2021/09/19 08:48:31;;;;;;;4.07;2.90;;;20.10;61.30;;;;;;5068182;28;20456;-45
2021/09/19 08:50:58;;;;;;;3.90;3.13;;;20.40;61.40;;;;;;5069347;28;20957;-45
2021/09/19 08:53:27;;;;;;;3.57;3.10;;;20.40;60.60;;;;;;5046603;28;20477;-45
2021/09/19 08:55:54;;;;;;;3.10;2.80;;;20.30;60.70;;;;;;5067738;28;20511;-45
2021/09/19 08:58:21;;;;;;;3.03;2.70;;;20.30;60.80;;;;;;5065743;28;20489;-45
2021/09/19 09:00:48;;;;;;;3.23;2.93;;;20.50;61.20;;;;;;5062910;28;21004;-47
2021/09/19 09:03:23;;;;;;;3.00;2.77;;;20.60;60.30;;;;;;5063915;28;20479;-45
2021/09/19 09:05:59;;;;;;;3.33;3.00;;;20.60;60.20;;;;;;5058020;28;20989;-45
2021/09/19 09:08:27;;;;;;;4.00;3.60;;;20.80;60.70;;;;;;5069471;28;20563;-46
2021/09/19 09:10:56;;;;;;;3.40;2.77;;;20.80;60.20;;;;;;5067808;28;20836;-45
2021/09/19 09:13:31;;;;;;;4.20;2.80;;;20.80;60.40;;;;;;5067540;28;20492;-45
2021/09/19 09:16:05;;;;;;;4.30;2.70;;;20.80;60.80;;;;;;5066025;28;20463;-45
2021/09/19 09:18:34;;;;;;;3.37;3.00;;;20.70;60.70;;;;;;5066148;28;20485;-44
2021/09/19 09:21:09;;;;;;;3.13;2.53;;;20.60;61.30;;;;;;5049378;28;20462;-45
2021/09/19 09:23:37;;;;;;;2.90;2.60;;;20.60;61.10;;;;;;5064442;28;20466;-45
2021/09/19 09:26:08;;;;;;;2.80;2.50;;;20.50;61.20;;;;;;5049792;28;20458;-45
2021/09/19 09:28:47;;;;;;;4.03;3.63;;;20.30;61.30;;;;;;5071106;28;20451;-44
2021/09/19 09:31:28;;;;;;;4.07;3.60;;;20.30;61.30;;;;;;5043397;28;20457;-45
2021/09/19 09:33:56;;;;;;;2.80;2.60;;;20.30;61.80;;;;;;5066366;28;20458;-45
2021/09/19 09:36:37;;;;;;;6.47;2.93;;;20.40;61.60;;;;;;5072339;28;20965;-45
2021/09/19 09:39:37;;;;;;;3.80;3.00;;;20.50;61.60;;;;;;5067439;28;20457;-45
2021/09/19 09:42:15;;;;;;;2.80;2.60;;;20.60;61.20;;;;;;5074276;28;20449;-45
2021/09/19 09:44:49;;;;;;;3.10;2.80;;;20.60;61.60;;;;;;5052648;28;20463;-45
2021/09/19 09:47:23;;;;;;;5.03;2.60;;;20.60;61.30;;;;;;5052914;28;20492;-45
2021/09/19 09:49:52;;;;;;;2.73;2.40;;;20.60;61.50;;;;;;5052883;28;20450;-45
2021/09/19 09:52:25;;;;;;;3.10;2.80;;;20.50;61.10;;;;;;5071256;28;20465;-45
2021/09/19 09:54:56;;;;;;;5.43;3.03;;;20.50;61.40;;;;;;5065432;28;20473;-45
2021/09/19 09:57:50;;;;;;;3.43;3.13;;;20.50;60.70;;;;;;5070448;28;20495;-45
2021/09/19 10:00:20;;;;;;;3.07;2.77;;;20.30;61.00;;;;;;5070728;28;20450;-45
2021/09/19 10:02:49;;;;;;;2.80;2.60;;;20.30;61.50;;;;;;5075267;28;20469;-45
2021/09/19 10:05:19;;;;;;;2.50;2.20;;;20.30;61.50;;;;;;5044396;28;20477;-45
2021/09/19 10:07:47;;;;;;;4.30;2.70;;;20.40;61.50;;;;;;5068257;28;20449;-45
2021/09/19 10:10:16;;;;;;;3.30;3.00;;;20.50;61.60;;;;;;5052363;28;20537;-45
2021/09/19 10:12:45;;;;;;;3.53;3.20;;;20.60;61.70;;;;;;5068056;28;20486;-44
2021/09/19 10:15:13;;;;;;;3.00;2.70;;;20.90;61.00;;;;;;5069921;28;20441;-45
2021/09/19 10:17:40;;;;;;;3.10;2.80;;;21.10;60.00;;;;;;5073750;28;20480;-45
2021/09/19 10:20:22;;;;;;;3.00;2.70;;;21.00;59.50;;;;;;5054210;28;20942;-45
2021/09/19 10:22:56;;;;;;;3.03;2.73;;;21.30;59.70;;;;;;5065777;28;20976;-48
2021/09/19 10:25:26;;;;;;;3.30;3.00;;;21.70;58.20;;;;;;5054313;28;20453;-45
2021/09/19 10:28:22;;;;;;;3.23;2.47;;;21.50;57.50;;;;;;5072827;28;20444;-46
2021/09/19 10:31:07;;;;;;;3.90;3.20;;;21.40;58.70;;;;;;5070014;28;20437;-46
2021/09/19 10:33:36;;;;;;;3.57;3.23;;;21.80;58.30;;;;;;5078201;28;20446;-46
2021/09/19 10:36:31;;;;;;;4.47;2.40;;;22.40;57.20;;;;;;5070113;28;21013;-46
2021/09/19 10:39:26;;;;;;;2.87;2.60;;;22.90;56.10;;;;;;5058177;28;20533;-45
2021/09/19 10:42:15;;;;;;;3.53;2.63;;;23.20;54.30;;;;;;5065319;28;20456;-46
2021/09/19 10:44:45;;;;;;;3.57;2.77;;;23.20;53.40;;;;;;5068327;28;20452;-46
2021/09/19 10:47:13;;;;;;;3.57;3.27;;;23.10;54.10;;;;;;5072335;28;20449;-47
2021/09/19 10:49:40;;;;;;;5.00;2.93;;;23.10;54.40;;;;;;5077750;28;20440;-46
2021/09/19 10:52:09;;;;;;;3.57;3.20;;;23.20;54.40;;;;;;5057545;28;20462;-46
2021/09/19 10:54:52;;;;;;;3.23;2.93;;;23.20;54.70;;;;;;5075102;28;20441;-45
2021/09/19 10:57:28;;;;;;;3.67;3.07;;;22.90;54.50;;;;;;5038716;28;20483;-46
2021/09/19 11:00:10;;;;;;;3.00;2.67;;;22.60;55.10;;;;;;5076872;28;20448;-46
2021/09/19 11:02:42;;;;;;;3.80;3.20;;;22.30;56.10;;;;;;5077061;28;20449;-46
2021/09/19 11:05:28;;;;;;;3.80;3.13;;;22.10;56.70;;;;;;5077120;28;20451;-45
2021/09/19 11:08:09;;;;;;;3.30;3.00;;;22.00;57.20;;;;;;5058076;28;20891;-46
2021/09/19 11:10:56;;;;;;;4.33;2.90;;;21.70;57.20;;;;;;5074541;28;20449;-46
2021/09/19 11:13:27;;;;;;;3.10;2.90;;;21.60;59.00;;;;;;5076118;28;20831;-46
2021/09/19 11:16:03;;;;;;;3.03;2.80;;;21.40;58.70;;;;;;5056802;28;20475;-46
2021/09/19 11:18:39;;;;;;;2.83;2.53;;;21.30;58.80;;;;;;5079273;28;20915;-46
2021/09/19 11:21:18;;;;;;;3.93;3.53;;;21.10;58.70;;;;;;5053827;28;20939;-46
2021/09/19 11:23:52;;;;;;;2.77;2.50;;;21.00;58.50;;;;;;5075440;28;20544;-46
2021/09/19 11:26:22;;;;;;;3.13;2.83;;;20.80;59.00;;;;;;5071964;28;20450;-46
2021/09/19 11:28:50;;;;;;;3.40;3.10;;;20.70;59.80;;;;;;5076111;28;20456;-46
2021/09/19 11:31:18;;;;;;;3.13;2.80;;;20.60;60.50;;;;;;5075718;28;20464;-45
2021/09/19 11:33:45;;;;;;;3.40;3.10;;;20.60;60.90;;;;;;5060624;28;20907;-46
2021/09/19 11:36:15;;;;;;;3.00;2.80;;;20.60;61.10;;;;;;5075355;28;20456;-46
2021/09/19 11:38:46;;;;;;;3.90;3.47;;;20.60;60.40;;;;;;5071928;28;20484;-46
2021/09/19 11:41:14;;;;;;;3.10;2.80;;;20.50;60.50;;;;;;5056013;28;20457;-46
2021/09/19 11:43:43;;;;;;;4.47;4.07;;;20.60;60.60;;;;;;5077912;28;20442;-46
2021/09/19 11:46:13;;;;;;;4.97;4.17;;;20.60;61.20;;;;;;5072412;28;20445;-46
2021/09/19 11:48:41;;;;;;;4.07;3.73;;;20.60;61.20;;;;;;5075644;28;20446;-45
2021/09/19 11:51:09;;;;;;;4.50;3.40;;;20.70;61.90;;;;;;5075768;28;20832;-46
2021/09/19 11:53:36;;;;;;;3.60;3.17;;;20.70;62.30;;;;;;5075087;28;20453;-46
2021/09/19 11:56:03;;;;;;;3.30;3.00;;;20.70;61.90;;;;;;5073757;28;20463;-46
2021/09/19 11:58:30;;;;;;;3.43;3.03;;;20.70;62.40;;;;;;5076126;28;20579;-46
2021/09/19 12:00:59;;;;;;;3.70;3.40;;;20.70;62.30;;;;;;5057427;28;20454;-46
2021/09/19 12:03:27;;;;;;;3.90;3.50;;;20.70;61.50;;;;;;5073748;28;20442;-47
2021/09/19 12:05:57;;;;;;;3.50;3.20;;;20.60;61.30;;;;;;5076031;28;20484;-46
2021/09/19 12:08:29;;;;;;;3.80;3.40;;;20.60;61.00;;;;;;5077444;28;20450;-46
2021/09/19 12:10:58;;;;;;;3.30;2.80;;;20.60;61.40;;;;;;5055461;28;20468;-46
2021/09/19 12:13:34;;;;;;;3.07;2.73;;;20.50;61.30;;;;;;5074540;28;20480;-46
2021/09/19 12:16:10;;;;;;;3.63;3.33;;;20.40;61.40;;;;;;5076376;28;20540;-46
2021/09/19 12:18:40;;;;;;;5.23;4.73;;;20.40;61.60;;;;;;5056930;28;20981;-46
2021/09/19 12:21:13;;;;;;;4.90;4.50;;;20.40;61.90;;;;;;5068894;28;20464;-46
2021/09/19 12:23:44;;;;;;;4.77;4.30;;;20.50;62.40;;;;;;5059053;28;20455;-45
2021/09/19 12:26:24;;;;;;;6.13;4.30;;;20.50;62.10;;;;;;5073415;28;20464;-46
2021/09/19 12:29:06;;;;;;;4.00;3.60;;;20.50;61.40;;;;;;5075399;28;20461;-46
2021/09/19 12:31:41;;;;;;;3.60;3.30;;;20.50;61.40;;;;;;5074731;28;20464;-46
2021/09/19 12:34:09;;;;;;;3.83;3.50;;;20.60;61.20;;;;;;5075003;28;20464;-46
2021/09/19 12:36:49;;;;;;;4.17;3.37;;;20.50;60.70;;;;;;5074066;28;20543;-46
2021/09/19 12:39:26;;;;;;;3.93;3.63;;;20.50;60.30;;;;;;5073722;28;20489;-46
2021/09/19 12:41:56;;;;;;;3.67;3.33;;;20.60;61.00;;;;;;5076148;28;20817;-46
2021/09/19 12:44:28;;;;;;;3.47;3.17;;;20.60;60.80;;;;;;5076800;28;20458;-45
2021/09/19 12:47:01;;;;;;;3.67;3.37;;;20.60;60.60;;;;;;5052113;28;20536;-46
2021/09/19 12:49:33;;;;;;;4.07;3.67;;;20.70;61.10;;;;;;5072691;28;20444;-46
2021/09/19 12:52:11;;;;;;;3.20;2.90;;;20.80;61.80;;;;;;5072762;28;20442;-46
2021/09/19 12:55:05;;;;;;;3.47;3.20;;;20.80;61.50;;;;;;5057164;28;21020;-46
2021/09/19 12:57:33;;;;;;;4.43;3.53;;;20.70;61.60;;;;;;5063588;28;20495;-46